Aplicació Alertes

Dades de l'estació automàtica Tivissa

?
?
Resum diari 21:00 TU
Dades diàries de l'estació meteorològica
Temperatura mitjana 7.0 °C
Temperatura màxima 10.3 °C 15:53 TU
Temperatura mínima 2.9 °C 2:41 TU
Humitat relativa mitjana 71%
Precipitació acumulada 0.0 mm
Ratxa màxima del vent (10 m) 39.6 km/h - 264º 18:20 TU
Irradiació solar global 2.8 MJ/m2

El tram horari està expressat en Temps Universal (TU). Cal sumar una hora en horari d'hivern i dues en horari d'estiu per passar a l'hora oficial.

Tivissa

Metadades estació meteorol´gica
Municipi Tivissa
Comarca Ribera d'Ebre
Altitud 317 m
Data alta 26.03.2015
Estat actual Operativa
Dades de període
Període
TU
TM
°C
TX
°C
TN
°C
HRM
%
PPT
mm
VVM (10 m)
km/h
DVM (10 m)
graus
VVX (10 m)
km/h
RS
W/m2
00:00 - 00:30 5.0 5.2 4.8 77 0.0 2.5 264 6.5 0
00:30 - 01:00 5.0 5.1 4.6 78 0.0 3.2 273 5.4 0
01:00 - 01:30 4.5 4.7 4.3 80 0.0 3.2 273 6.8 0
01:30 - 02:00 3.8 4.6 3.2 84 0.0 2.5 311 6.5 0
02:00 - 02:30 3.6 4.0 2.9 85 0.0 3.2 357 8.3 0
02:30 - 03:00 3.7 4.4 2.9 85 0.0 2.9 265 7.6 0
03:00 - 03:30 3.7 4.1 3.3 84 0.0 3.6 259 6.8 0
03:30 - 04:00 4.1 4.6 3.4 82 0.0 4.7 267 11.9 0
04:00 - 04:30 4.2 4.6 3.8 81 0.0 3.6 268 7.2 0
04:30 - 05:00 3.9 4.2 3.7 83 0.0 2.9 285 5.4 0
05:00 - 05:30 3.8 4.2 3.5 83 0.0 2.5 306 5.4 0
05:30 - 06:00 3.9 4.1 3.8 82 0.0 3.6 342 7.6 0
06:00 - 06:30 4.2 4.5 3.8 82 0.0 3.2 208 6.8 0
06:30 - 07:00 4.5 5.0 4.3 81 0.0 2.5 210 5.4 0
07:00 - 07:30 5.1 5.5 4.7 77 0.0 3.2 301 9.0 4
07:30 - 08:00 5.2 5.5 5.1 78 0.0 4.7 266 10.1 18
08:00 - 08:30 5.8 6.3 5.5 75 0.0 5.0 263 9.0 59
08:30 - 09:00 6.4 6.4 6.3 73 0.0 4.3 296 15.1 87
09:00 - 09:30 6.4 6.5 6.3 72 0.0 9.0 317 17.3 95
09:30 - 10:00 6.7 7.0 6.4 71 0.0 5.0 286 14.0 112
10:00 - 10:30 7.2 7.5 7.0 69 0.0 5.0 293 14.0 149
10:30 - 11:00 7.7 8.0 7.5 66 0.0 8.3 282 21.2 173
11:00 - 11:30 8.1 8.2 8.0 64 0.0 8.3 294 25.6 144
11:30 - 12:00 7.7 8.3 7.4 66 0.0 13.7 321 26.6 92
12:00 - 12:30 7.4 7.5 7.3 68 0.0 13.3 321 25.2 69
12:30 - 13:00 7.6 7.8 7.4 67 0.0 9.4 314 17.6 94
13:00 - 13:30 8.2 8.5 7.8 66 0.0 10.4 312 23.4 113
13:30 - 14:00 8.1 8.4 7.9 66 0.0 11.9 324 21.6 122
14:00 - 14:30 8.9 9.1 8.5 63 0.0 7.9 302 27.0 97
14:30 - 15:00 8.8 9.1 8.7 64 0.0 10.1 321 23.8 69
15:00 - 15:30 8.9 8.9 8.8 64 0.0 6.5 296 14.0 51
15:30 - 16:00 9.5 10.3 8.8 62 0.0 10.1 273 34.9 45
16:00 - 16:30 10.2 10.3 10.0 60 0.0 11.2 260 32.4 11
16:30 - 17:00 9.9 10.0 9.8 60 0.0 8.6 257 25.9 0
17:00 - 17:30 9.8 9.9 9.7 61 0.0 7.6 260 20.5 0
17:30 - 18:00 10.0 10.1 9.9 58 0.0 17.3 261 36.7 0
18:00 - 18:30 10.1 10.2 10.1 58 0.0 15.1 261 39.6 0
18:30 - 19:00 10.0 10.1 9.9 61 0.0 9.7 284 28.1 0
19:00 - 19:30 10.0 10.1 9.8 63 0.0 7.2 291 24.1 0
19:30 - 20:00 9.7 9.8 9.7 65 0.0 6.5 265 13.0 0
20:00 - 20:30 9.8 9.9 9.7 67 0.0 7.2 261 14.0 0
20:30 - 21:00 9.5 9.7 9.4 69 0.0 5.4 251 10.8 0
21:00 - 21:30 9.3 9.4 9.2 71 0.0 2.9 264 9.7 0

Les dades en taronja només han passat un control de qualitat automàtic. Resta pendent la seva validació definitiva.